Oregon, Wisconsin
Current Conditions -  °F | °C
As of 3:53 PM on Monday 26 Jan 2015 (Local Time) from KMSN Reporting Station
Light Snow Light Snow  
Wind Chill: 13°   Ceiling: 600
Heat Index: 23°   Visibility: 1mi
Dew Point: 20°   Wind: 9mph
Humidity: 88%   Direction: 190°S
Pressure: 29.82"   Gusts: 20mph
Location:  42.93°N, 89.38°W
Report Text: KMSN 262153Z 19008G17KT 1SM R36/P6000FT -SN BR OVC006 M05/M07 A2982 RMK AO2 SLP112 P0000 T10501067
Loading
Personal Weather Stations






























Interactive Weather Map New forecast layout! Learn more

10-Day Weather Forecast

Advertisements
Track Severe Weather on mobile